Flight Track Log - Related Links

Times and Time Zones

All times are in EST time to prevent confusion due to time zone crossing. See the DAL6201 flight status page for this flight to view local times or setup timezone preferences in your user account.


Time Position Orientation Groundspeed Altitude Reporting Facility
EST Latitude Longitude Course Direction KTS MPH feet Rate Location/Type
Fri 06:55:15 PM 40.6003 -80.2836 78° East 287 330 5,100  Level Cleveland Center
Fri 06:56:17 PM 40.6319 -80.1747 69° East 336 387 9,300 3,888 Climbing Cleveland Center
Fri 06:57:20 PM 40.6433 -80.0297 84° East 335 386 13,200 2,880 Climbing Cleveland Center
Fri 06:58:22 PM 40.6519 -79.8883 85° East 392 451 15,300 2,177 Climbing Cleveland Center
Fri 06:59:00 PM 40.5481 -79.4118 80° East  Level Estimated
Fri 06:59:24 PM 40.6603 -79.7381 86° East 408 470 17,700  Level Cleveland Center
Fri 07:00:00 PM 40.5570 -79.2748 78° East  Level Estimated
Fri 07:00:26 PM 40.6697 -79.5894 85° East 407 468 19,900  Level Cleveland Center
Fri 07:01:28 PM 40.6778 -79.4403 86° East 408 470 21,800 1,790 Climbing Cleveland Center
Fri 07:02:30 PM 40.6858 -79.2889 86° East 413 475 23,600 1,839 Climbing Cleveland Center
Fri 07:03:32 PM 40.6936 -79.1389 86° East 412 474 25,600 1,839 Climbing Cleveland Center
Fri 07:04:34 PM 40.7036 -78.9578 86° East 413 475 27,400 1,500 Climbing Cleveland Center
Fri 07:05:36 PM 40.7108 -78.8172 86° East 411 473 28,700 774 Climbing Cleveland Center
Fri 07:06:38 PM 40.7181 -78.6611 86° East 423 487 29,000 146 Climbing Cleveland Center
Fri 07:07:39 PM 40.7286 -78.4672 86° East 448 516 29,000  Level Cleveland Center
Fri 07:08:41 PM 40.7483 -78.3092 81° East 451 519 29,000  Level Cleveland Center
Fri 07:09:43 PM 40.8183 -78.1767 55° Northeast 448 516 29,000  Level Cleveland Center
Fri 07:10:45 PM 40.8875 -78.0458 55° Northeast 443 510 29,000  Level Cleveland Center
Fri 07:11:47 PM 40.9264 -77.8672 74° East 432 497 29,000  Level Cleveland Center
Fri 07:12:44 PM 40.9378 -77.7347 83° East 422 486 29,000  Level New York Center
Fri 07:13:44 PM 40.9514 -77.5714 84° East 433 498 29,000 -50 Level New York Center
Fri 07:14:44 PM 40.9647 -77.4103 84° East 440 506 28,900 -850 Descending New York Center
Fri 07:15:44 PM 40.9767 -77.2356 85° East 452 520 27,300 -1,600 Descending New York Center
Fri 07:16:44 PM 40.9922 -77.0611 83° East 467 537 25,700 -1,600 Descending New York Center
Fri 07:17:44 PM 41.0053 -76.8917 84° East 467 537 24,100 -1,600 Descending New York Center
Fri 07:18:44 PM 41.0156 -76.7278 85° East 455 524 22,500 -1,550 Descending New York Center
Fri 07:19:44 PM 40.9983 -76.5750 98° East 444 511 21,000 -1,600 Descending New York Center
Fri 07:20:44 PM 40.9656 -76.4347 107° East 419 482 19,300 -1,500 Descending New York Center
Fri 07:21:44 PM 40.9325 -76.2944 107° East 404 465 18,000 -1,050 Descending New York Center
Fri 07:22:44 PM 40.8975 -76.1489 108° East 387 445 17,200 -1,150 Descending New York Center
Fri 07:23:44 PM 40.8639 -76.0147 108° East 382 440 15,700 -1,500 Descending New York Center
Fri 07:24:44 PM 40.8322 -75.8833 108° East 376 433 14,200 -1,350 Descending New York Center
Fri 07:25:44 PM 40.8039 -75.7661 108° East 371 427 13,000 -600 Descending New York Center
Fri 07:26:44 PM 40.7717 -75.6375 108° East 371 427 13,000  Level New York Center
Fri 07:27:44 PM 40.7414 -75.5147 108° East 371 427 13,000  Level New York Center
Fri 07:28:44 PM 40.7097 -75.3675 106° East 378 435 13,000 -400 Level New York Center
Fri 07:29:44 PM 40.6833 -75.2372 105° East 372 428 12,200 -900 Descending New York Center
Fri 07:30:44 PM 40.6419 -75.1194 115° Southeast 359 413 11,200 -1,000 Descending New York Center
Fri 07:31:44 PM 40.5767 -75.0197 131° Southeast 354 407 10,200 -650 Descending New York Center
Fri 07:32:44 PM 40.5369 -74.9081 115° Southeast 349 402 9,900 -58 Descending New York Center
Fri 07:33:28 PM 40.5167 -74.8333 110° East 319 367 10,100 122 Climbing New York TRACON
Fri 07:34:22 PM 40.4833 -74.7333 114° Southeast 311 358 10,100  Level New York TRACON
Fri 07:35:22 PM 40.4500 -74.6333 114° Southeast 307 353 10,100 -500 Level New York TRACON
Fri 07:36:22 PM 40.4333 -74.5167 101° East 317 365 9,100 -1,000 Descending New York TRACON
Fri 07:37:22 PM 40.4500 -74.4167 78° East 305 351 8,100 -500 Descending New York TRACON
Fri 07:38:22 PM 40.4333 -74.3000 101° East 286 329 8,100 -50 Level New York TRACON
Fri 07:39:23 PM 40.4833 -74.2167 52° Northeast 300 345 8,000 -950 Descending New York TRACON
Fri 07:40:22 PM 40.5333 -74.1333 52° Northeast 289 333 6,200 -1,866 Descending New York TRACON
Fri 07:41:22 PM 40.6000 -74.0667 37° Northeast 287 330 4,300 -1,041 Descending New York TRACON
Fri 07:42:23 PM 40.6667 -74.0500 11° North 272 313 4,100 -100 Descending New York TRACON
Fri 07:43:22 PM 40.7333 -74.0167 21° North 262 302 4,100  Level New York TRACON
Fri 07:44:28 PM 40.8167 -73.9667 24° Northeast 269 310 4,100 -273 Level New York TRACON
Fri 07:45:34 PM 40.8667 -73.9167 37° Northeast 225 259 3,500 -893 Descending New York TRACON
Fri 07:46:29 PM 40.9000 -73.8667 49° Northeast 198 228 2,300 -730 Descending New York TRACON
Fri 07:47:29 PM 40.9000 -73.8000 90° East 197 227 2,100 -263 Descending New York TRACON
Fri 07:48:23 PM 40.8667 -73.8000 180° South 153 176 1,800 -252 Descending New York TRACON
Fri 07:49:28 PM 40.8333 -73.8167 201° Southwest 117 135 1,600 -476 Descending New York TRACON
Fri 07:50:29 PM 40.8167 -73.8500 237° Southwest 119 137 800 -787 Descending New York TRACON
Fri 07:52:00 PM 40.7772 -73.8726 201° Southwest  Level Estimated
Fri 07:59:00 PM 40.7772 -73.8726 201° Southwest  Level Estimated

Login

Don't have an account? Register now (free) for customized features, flight alerts, and more!